Time;durP1;ratioP1;P1;durP2;ratioP2;P2;SDS_P1;SDS_P2;PMS_P1;PMS_P2;Temp;Humidity;BMP_temperature;BMP_pressure;BME280_temperature;BME280_humidity;BME280_pressure;Samples;Min_cycle;Max_cycle;Signal;HPM_P1;HPM_P2
2022/04/29 00:00:34;;;;;;;12.98;8.60;;;;;;;;;;4955409;29;20185;-75
2022/04/29 00:03:00;;;;;;;23.08;9.55;;;;;;;;;;4955032;29;20200;-73
2022/04/29 00:05:26;;;;;;;14.20;9.70;;;;;;;;;;4955226;29;20647;-74
2022/04/29 00:07:53;;;;;;;12.87;9.00;;;;;;;;;;4955510;29;20192;-73
2022/04/29 00:10:19;;;;;;;14.77;9.10;;;;;;;;;;4955452;29;20409;-75
2022/04/29 00:12:46;;;;;;;13.43;9.20;;;;;;;;;;4955278;29;20177;-73
2022/04/29 00:15:13;;;;;;;14.88;8.65;;;;;;;;;;4955088;29;20197;-75
2022/04/29 00:17:40;;;;;;;16.20;9.30;;;;;;;;;;4955172;29;20260;-74
2022/04/29 00:20:06;;;;;;;16.33;9.10;;;;;;;;;;4955062;29;20252;-74
2022/04/29 00:22:33;;;;;;;12.10;9.95;;;;;;;;;;4955202;29;20191;-74
2022/04/29 00:24:59;;;;;;;14.55;8.93;;;;;;;;;;4954573;29;20729;-74
2022/04/29 00:27:25;;;;;;;12.97;9.30;;;;;;;;;;4953635;29;20189;-72
2022/04/29 00:29:51;;;;;;;15.73;8.82;;;;;;;;;;4954898;29;20405;-72
2022/04/29 00:32:17;;;;;;;11.32;9.68;;;;;;;;;;4955014;29;20184;-73
2022/04/29 00:34:43;;;;;;;13.00;8.90;;;;;;;;;;4953513;29;20205;-74
2022/04/29 00:37:12;;;;;;;16.53;9.50;;;;;;;;;;4954918;29;20459;-73
2022/04/29 00:39:38;;;;;;;18.08;11.10;;;;;;;;;;4953528;29;20472;-74
2022/04/29 00:42:14;;;;;;;19.52;11.13;;;;;;;;;;4954822;29;20174;-73
2022/04/29 00:44:40;;;;;;;17.20;11.48;;;;;;;;;;4954549;29;20208;-73
2022/04/29 00:47:08;;;;;;;14.35;10.48;;;;;;;;;;4955011;29;20182;-75
2022/04/29 00:49:34;;;;;;;16.92;10.20;;;;;;;;;;4953446;29;20247;-72
2022/04/29 00:52:00;;;;;;;15.93;9.77;;;;;;;;;;4955022;29;20590;-72
2022/04/29 00:54:31;;;;;;;16.88;10.90;;;;;;;;;;4954637;29;20753;-72
2022/04/29 00:56:58;;;;;;;17.15;12.30;;;;;;;;;;4955070;29;20195;-72
2022/04/29 00:59:33;;;;;;;13.90;9.77;;;;;;;;;;4953907;29;20224;-74
2022/04/29 01:01:59;;;;;;;17.20;10.82;;;;;;;;;;4955224;29;20634;-73
2022/04/29 01:04:27;;;;;;;16.02;8.77;;;;;;;;;;4953375;29;20749;-74
2022/04/29 01:06:53;;;;;;;15.90;10.38;;;;;;;;;;4955036;29;20489;-73
2022/04/29 01:09:19;;;;;;;17.92;10.80;;;;;;;;;;4953596;29;20189;-73
2022/04/29 01:11:46;;;;;;;21.77;9.75;;;;;;;;;;4953662;29;20263;-72
2022/04/29 01:14:12;;;;;;;15.32;9.23;;;;;;;;;;4953304;29;20287;-73
2022/04/29 01:16:41;;;;;;;17.05;10.50;;;;;;;;;;4954985;29;20209;-73
2022/04/29 01:19:07;;;;;;;12.75;9.40;;;;;;;;;;4954805;28;20201;-73
2022/04/29 01:21:33;;;;;;;17.60;11.00;;;;;;;;;;4954587;29;20197;-73
2022/04/29 01:23:58;;;;;;;16.10;10.53;;;;;;;;;;4937235;29;20457;-71
2022/04/29 01:26:24;;;;;;;16.00;10.17;;;;;;;;;;4954787;29;20832;-72
2022/04/29 01:28:52;;;;;;;15.33;10.67;;;;;;;;;;4953739;29;20413;-73
2022/04/29 01:31:20;;;;;;;19.45;11.20;;;;;;;;;;4954758;29;20420;-73
2022/04/29 01:33:48;;;;;;;22.15;10.30;;;;;;;;;;4954300;29;20232;-74
2022/04/29 01:36:14;;;;;;;22.23;11.52;;;;;;;;;;4954506;29;20173;-73
2022/04/29 01:38:40;;;;;;;18.27;10.57;;;;;;;;;;4953279;29;20591;-73
2022/04/29 01:41:06;;;;;;;14.88;10.20;;;;;;;;;;4954694;29;20422;-74
2022/04/29 01:43:36;;;;;;;16.90;9.60;;;;;;;;;;4954164;29;20197;-74
2022/04/29 01:46:02;;;;;;;16.48;11.52;;;;;;;;;;4954461;29;20169;-72
2022/04/29 01:48:29;;;;;;;20.88;10.88;;;;;;;;;;4953394;29;20288;-73
2022/04/29 01:50:55;;;;;;;15.18;9.73;;;;;;;;;;4954721;29;20189;-74
2022/04/29 01:53:21;;;;;;;19.77;10.80;;;;;;;;;;4954401;29;20193;-73
2022/04/29 01:55:47;;;;;;;18.23;13.05;;;;;;;;;;4953581;29;20646;-72
2022/04/29 01:58:13;;;;;;;18.43;10.27;;;;;;;;;;4954250;29;20217;-74
2022/04/29 02:00:39;;;;;;;13.63;9.38;;;;;;;;;;4954627;28;20407;-74
2022/04/29 02:03:06;;;;;;;19.63;10.80;;;;;;;;;;4956888;29;20189;-75
2022/04/29 02:05:32;;;;;;;14.13;10.20;;;;;;;;;;4956803;29;20180;-72
2022/04/29 02:08:00;;;;;;;18.30;11.00;;;;;;;;;;4957812;29;20271;-71
2022/04/29 02:10:26;;;;;;;18.52;11.18;;;;;;;;;;4957559;28;20421;-74
2022/04/29 02:12:52;;;;;;;21.77;11.38;;;;;;;;;;4957589;29;20187;-72
2022/04/29 02:15:20;;;;;;;17.63;10.37;;;;;;;;;;4957444;29;20214;-74
2022/04/29 02:17:46;;;;;;;16.55;10.48;;;;;;;;;;4957578;28;20404;-74
2022/04/29 02:20:12;;;;;;;20.50;10.40;;;;;;;;;;4957446;29;20215;-72
2022/04/29 02:22:39;;;;;;;17.63;11.45;;;;;;;;;;4956244;29;20228;-75
2022/04/29 02:25:05;;;;;;;15.23;11.30;;;;;;;;;;4957008;28;20301;-74
2022/04/29 02:27:31;;;;;;;15.98;10.65;;;;;;;;;;4957489;29;20177;-73
2022/04/29 02:29:57;;;;;;;14.73;9.93;;;;;;;;;;4957307;29;20207;-73
2022/04/29 02:32:24;;;;;;;18.15;11.40;;;;;;;;;;4957104;29;20420;-73
2022/04/29 02:34:51;;;;;;;16.30;10.40;;;;;;;;;;4955499;29;20287;-72
2022/04/29 02:37:17;;;;;;;17.75;10.38;;;;;;;;;;4957281;29;20546;-72
2022/04/29 02:39:43;;;;;;;19.77;11.98;;;;;;;;;;4957251;29;20222;-72
2022/04/29 02:42:09;;;;;;;14.57;11.05;;;;;;;;;;4957166;29;20544;-72
2022/04/29 02:44:35;;;;;;;23.55;11.95;;;;;;;;;;4955317;29;20193;-73
2022/04/29 02:47:07;;;;;;;24.67;13.90;;;;;;;;;;4957045;29;20187;-73
2022/04/29 02:49:43;;;;;;;14.15;11.80;;;;;;;;;;4957084;29;20420;-73
2022/04/29 02:52:10;;;;;;;18.95;12.55;;;;;;;;;;4957060;29;20181;-73
2022/04/29 02:54:36;;;;;;;18.95;12.00;;;;;;;;;;4956521;28;20204;-74
2022/04/29 02:57:03;;;;;;;16.45;11.27;;;;;;;;;;4956918;29;20188;-73
2022/04/29 02:59:29;;;;;;;16.67;12.43;;;;;;;;;;4956793;29;20271;-72
2022/04/29 03:01:55;;;;;;;18.97;12.57;;;;;;;;;;4956859;29;20178;-74
2022/04/29 03:04:21;;;;;;;20.90;12.38;;;;;;;;;;4956369;29;20443;-72
2022/04/29 03:06:47;;;;;;;17.02;12.98;;;;;;;;;;4955516;29;20231;-72
2022/04/29 03:09:13;;;;;;;17.95;12.25;;;;;;;;;;4956845;29;20262;-73
2022/04/29 03:11:39;;;;;;;17.00;11.20;;;;;;;;;;4956825;29;20272;-73
2022/04/29 03:14:05;;;;;;;19.98;11.82;;;;;;;;;;4956230;28;20435;-72
2022/04/29 03:16:31;;;;;;;21.77;13.27;;;;;;;;;;4956660;29;20185;-74
2022/04/29 03:18:57;;;;;;;18.38;12.10;;;;;;;;;;4955230;29;20686;-73
2022/04/29 03:21:24;;;;;;;20.27;11.85;;;;;;;;;;4956506;29;20275;-72
2022/04/29 03:23:50;;;;;;;19.70;12.60;;;;;;;;;;4954799;29;20221;-74
2022/04/29 03:26:16;;;;;;;24.30;11.75;;;;;;;;;;4956279;29;20185;-71
2022/04/29 03:28:42;;;;;;;16.20;11.53;;;;;;;;;;4955307;29;20182;-72
2022/04/29 03:31:08;;;;;;;18.00;12.43;;;;;;;;;;4956181;29;20449;-73
2022/04/29 03:33:34;;;;;;;18.38;11.73;;;;;;;;;;4955938;29;20432;-73
2022/04/29 03:36:00;;;;;;;17.33;12.85;;;;;;;;;;4956227;29;20196;-73
2022/04/29 03:38:26;;;;;;;22.53;13.33;;;;;;;;;;4954778;29;20204;-72
2022/04/29 03:40:53;;;;;;;14.80;12.07;;;;;;;;;;4956010;29;20417;-73
2022/04/29 03:43:19;;;;;;;19.08;11.90;;;;;;;;;;4955530;29;20204;-72
2022/04/29 03:45:45;;;;;;;20.80;12.88;;;;;;;;;;4954737;29;20251;-72
2022/04/29 03:48:11;;;;;;;24.38;12.70;;;;;;;;;;4955937;29;20182;-73
2022/04/29 03:50:38;;;;;;;14.90;12.05;;;;;;;;;;4955914;29;20188;-73
2022/04/29 03:53:05;;;;;;;18.35;12.45;;;;;;;;;;4955441;28;20184;-74
2022/04/29 03:55:32;;;;;;;17.63;12.25;;;;;;;;;;4955912;29;20181;-73
2022/04/29 03:57:58;;;;;;;23.35;12.57;;;;;;;;;;4954629;29;20291;-72
2022/04/29 04:00:31;;;;;;;19.02;12.02;;;;;;;;;;4954414;29;20203;-73
2022/04/29 04:02:57;;;;;;;17.88;11.98;;;;;;;;;;4955525;28;20199;-73
2022/04/29 04:05:23;;;;;;;19.77;13.15;;;;;;;;;;4955695;29;20175;-72
2022/04/29 04:07:49;;;;;;;15.50;12.35;;;;;;;;;;4955734;28;20176;-72
2022/04/29 04:10:15;;;;;;;19.58;11.50;;;;;;;;;;4955533;29;20189;-73
2022/04/29 04:12:48;;;;;;;17.80;11.87;;;;;;;;;;4955642;29;20188;-74
2022/04/29 04:15:15;;;;;;;20.23;12.50;;;;;;;;;;4953886;29;20454;-74
2022/04/29 04:17:41;;;;;;;18.98;13.35;;;;;;;;;;4955384;29;20182;-72
2022/04/29 04:20:08;;;;;;;21.70;12.80;;;;;;;;;;4955449;29;20212;-71
2022/04/29 04:22:37;;;;;;;19.88;12.77;;;;;;;;;;4955198;29;20180;-71
2022/04/29 04:25:07;;;;;;;20.73;14.00;;;;;;;;;;4954431;28;20224;-73
2022/04/29 04:27:33;;;;;;;15.73;12.18;;;;;;;;;;4954020;29;20180;-73
2022/04/29 04:30:00;;;;;;;21.42;12.88;;;;;;;;;;4955342;29;20264;-73
2022/04/29 04:32:26;;;;;;;21.42;13.65;;;;;;;;;;4955351;29;20668;-74
2022/04/29 04:34:57;;;;;;;16.33;13.02;;;;;;;;;;4953610;29;20673;-72
2022/04/29 04:37:24;;;;;;;17.02;13.05;;;;;;;;;;4955249;28;20173;-74
2022/04/29 04:39:50;;;;;;;16.15;11.95;;;;;;;;;;4955150;29;20220;-73
2022/04/29 04:42:17;;;;;;;19.83;12.82;;;;;;;;;;4955175;29;20207;-73
2022/04/29 04:44:45;;;;;;;16.88;12.27;;;;;;;;;;4953649;29;20199;-74
2022/04/29 04:47:11;;;;;;;21.30;13.07;;;;;;;;;;4955067;29;20648;-72
2022/04/29 04:49:37;;;;;;;22.02;12.00;;;;;;;;;;4954987;29;20177;-72
2022/04/29 04:52:04;;;;;;;22.60;12.97;;;;;;;;;;4955102;29;20241;-73
2022/04/29 04:54:29;;;;;;;21.38;12.43;;;;;;;;;;4954735;29;20479;-73
2022/04/29 04:56:55;;;;;;;22.83;12.83;;;;;;;;;;4953986;29;20588;-74
2022/04/29 04:59:21;;;;;;;22.13;13.00;;;;;;;;;;4955358;29;20484;-73
2022/04/29 05:01:47;;;;;;;20.23;13.40;;;;;;;;;;4954949;29;20448;-74
2022/04/29 05:04:14;;;;;;;23.95;15.25;;;;;;;;;;4954711;29;20477;-74
2022/04/29 05:06:40;;;;;;;24.40;14.52;;;;;;;;;;4954942;29;20191;-73
2022/04/29 05:09:06;;;;;;;17.60;12.43;;;;;;;;;;4955157;28;20207;-73
2022/04/29 05:11:32;;;;;;;22.67;14.88;;;;;;;;;;4953913;29;20182;-72
2022/04/29 05:13:58;;;;;;;26.50;13.60;;;;;;;;;;4954543;29;20340;-73
2022/04/29 05:16:25;;;;;;;19.08;13.73;;;;;;;;;;4955135;29;20189;-74
2022/04/29 05:18:51;;;;;;;26.58;15.32;;;;;;;;;;4954564;29;20195;-75
2022/04/29 05:21:17;;;;;;;23.50;12.30;;;;;;;;;;4953574;29;20191;-73
2022/04/29 05:23:43;;;;;;;20.83;14.05;;;;;;;;;;4953888;29;20445;-72
2022/04/29 05:26:09;;;;;;;21.30;13.63;;;;;;;;;;4953512;29;20277;-73
2022/04/29 05:28:35;;;;;;;20.58;12.27;;;;;;;;;;4954816;29;20192;-74
2022/04/29 05:31:02;;;;;;;15.90;13.65;;;;;;;;;;4954764;29;20189;-74
2022/04/29 05:33:28;;;;;;;20.40;14.10;;;;;;;;;;4953138;29;20237;-73
2022/04/29 05:35:54;;;;;;;23.80;13.75;;;;;;;;;;4954638;28;20583;-73
2022/04/29 05:38:20;;;;;;;19.08;12.60;;;;;;;;;;4957947;29;20213;-74
2022/04/29 05:43:31;;;;;;;19.02;13.63;;;;;;;;;;4957782;29;20292;-72
2022/04/29 05:45:57;;;;;;;24.13;13.93;;;;;;;;;;4958010;29;20264;-73
2022/04/29 05:48:23;;;;;;;21.70;13.40;;;;;;;;;;4958136;29;20420;-72
2022/04/29 05:50:49;;;;;;;26.77;14.53;;;;;;;;;;4958100;29;20472;-74
2022/04/29 05:53:15;;;;;;;23.35;15.07;;;;;;;;;;4957683;29;22231;-74
2022/04/29 05:55:42;;;;;;;17.02;13.38;;;;;;;;;;4958067;29;20240;-74
2022/04/29 05:58:08;;;;;;;17.35;13.20;;;;;;;;;;4957824;29;20208;-74
2022/04/29 06:00:34;;;;;;;26.33;14.35;;;;;;;;;;4958191;29;20182;-73
2022/04/29 06:03:01;;;;;;;23.92;14.32;;;;;;;;;;4957696;29;20181;-72
2022/04/29 06:05:27;;;;;;;18.55;13.95;;;;;;;;;;4958142;28;20174;-73
2022/04/29 06:07:53;;;;;;;19.95;13.73;;;;;;;;;;4957674;29;20626;-73
2022/04/29 06:10:19;;;;;;;20.45;14.18;;;;;;;;;;4957801;29;20191;-73
2022/04/29 06:12:46;;;;;;;26.50;14.20;;;;;;;;;;4957876;29;20173;-73
2022/04/29 06:15:16;;;;;;;18.08;13.93;;;;;;;;;;4957467;29;20288;-73
2022/04/29 06:17:43;;;;;;;22.15;14.27;;;;;;;;;;4956465;29;20234;-72
2022/04/29 06:20:09;;;;;;;19.65;13.65;;;;;;;;;;4957563;29;20205;-74
2022/04/29 06:22:35;;;;;;;22.45;13.40;;;;;;;;;;4940513;29;20276;-73
2022/04/29 06:25:01;;;;;;;18.53;12.73;;;;;;;;;;4957381;29;20662;-74
2022/04/29 06:27:27;;;;;;;17.35;12.80;;;;;;;;;;4957670;29;20453;-72
2022/04/29 06:29:53;;;;;;;18.43;12.63;;;;;;;;;;4956449;29;20228;-73
2022/04/29 06:32:19;;;;;;;20.27;14.18;;;;;;;;;;4957343;29;20428;-74
2022/04/29 06:34:45;;;;;;;18.20;12.87;;;;;;;;;;4957157;29;20201;-73
2022/04/29 06:37:11;;;;;;;18.77;13.97;;;;;;;;;;4957544;29;20780;-73
2022/04/29 06:39:40;;;;;;;33.75;13.90;;;;;;;;;;4955988;29;20476;-74
2022/04/29 06:42:06;;;;;;;17.90;13.50;;;;;;;;;;4957291;29;20177;-73
2022/04/29 06:44:32;;;;;;;21.17;13.80;;;;;;;;;;4956551;29;20204;-72
2022/04/29 06:46:58;;;;;;;17.45;14.70;;;;;;;;;;4956807;28;20650;-74
2022/04/29 06:49:24;;;;;;;17.67;13.67;;;;;;;;;;4956954;29;20260;-72
2022/04/29 06:51:50;;;;;;;20.07;13.30;;;;;;;;;;4957051;29;20460;-73
2022/04/29 06:54:16;;;;;;;20.77;14.32;;;;;;;;;;4956513;29;20425;-73
2022/04/29 06:56:42;;;;;;;19.65;14.02;;;;;;;;;;4956839;29;20189;-72
2022/04/29 06:59:08;;;;;;;20.87;13.97;;;;;;;;;;4956786;29;20217;-73
2022/04/29 07:01:34;;;;;;;22.48;14.20;;;;;;;;;;4957250;29;20409;-73
2022/04/29 07:04:00;;;;;;;23.30;15.60;;;;;;;;;;4956422;29;20208;-73
2022/04/29 07:06:27;;;;;;;20.97;14.20;;;;;;;;;;4956748;29;20918;-72
2022/04/29 07:08:53;;;;;;;22.65;16.05;;;;;;;;;;4956618;28;20832;-73
2022/04/29 07:11:19;;;;;;;21.33;15.70;;;;;;;;;;4956627;28;20185;-74
2022/04/29 07:13:45;;;;;;;19.67;15.10;;;;;;;;;;4955084;29;20264;-74
2022/04/29 07:16:11;;;;;;;17.10;14.30;;;;;;;;;;4956493;29;20421;-74
2022/04/29 07:18:37;;;;;;;24.20;15.07;;;;;;;;;;4956595;29;20464;-72
2022/04/29 07:21:04;;;;;;;19.13;16.23;;;;;;;;;;4955366;29;20417;-74
2022/04/29 07:23:30;;;;;;;24.40;15.30;;;;;;;;;;4956182;29;20452;-74
2022/04/29 07:25:58;;;;;;;24.07;17.10;;;;;;;;;;4956462;29;20421;-75
2022/04/29 07:28:24;;;;;;;24.87;17.00;;;;;;;;;;4955228;29;20877;-75
2022/04/29 07:30:50;;;;;;;26.10;16.50;;;;;;;;;;4956032;29;20492;-74
2022/04/29 07:33:16;;;;;;;23.37;16.10;;;;;;;;;;4955733;29;20437;-76
2022/04/29 07:43:56;;;;;;;21.30;16.70;;;;;;;;;;4956049;29;20435;-76
2022/04/29 07:46:22;;;;;;;23.63;15.87;;;;;;;;;;4954825;29;20409;-75
2022/04/29 07:48:48;;;;;;;22.67;15.97;;;;;;;;;;4955844;28;20771;-75
2022/04/29 07:51:14;;;;;;;26.83;17.17;;;;;;;;;;4955853;29;20420;-76
2022/04/29 07:53:40;;;;;;;24.30;16.07;;;;;;;;;;4955314;29;21017;-74
2022/04/29 07:56:06;;;;;;;17.47;15.37;;;;;;;;;;4955680;29;20417;-74
2022/04/29 07:58:34;;;;;;;23.17;15.63;;;;;;;;;;4955392;28;20457;-75
2022/04/29 08:01:00;;;;;;;20.37;14.90;;;;;;;;;;4955235;28;20392;-75
2022/04/29 08:03:26;;;;;;;20.07;15.73;;;;;;;;;;4955317;29;20836;-75
2022/04/29 08:05:52;;;;;;;18.90;16.27;;;;;;;;;;4955777;29;20409;-75
2022/04/29 08:08:19;;;;;;;25.83;17.30;;;;;;;;;;4955616;28;20605;-75
2022/04/29 08:10:45;;;;;;;21.53;16.00;;;;;;;;;;4955684;28;20515;-75
2022/04/29 08:13:12;;;;;;;22.77;16.90;;;;;;;;;;4955250;28;21201;-73
2022/04/29 08:15:38;;;;;;;21.83;16.20;;;;;;;;;;4955663;29;20417;-75
2022/04/29 08:18:06;;;;;;;17.77;15.10;;;;;;;;;;4954155;29;20465;-74
2022/04/29 08:20:32;;;;;;;21.90;16.60;;;;;;;;;;4955552;28;20417;-75
2022/04/29 08:22:58;;;;;;;21.80;16.20;;;;;;;;;;4955066;29;20884;-75
2022/04/29 08:25:24;;;;;;;20.30;16.27;;;;;;;;;;4955227;29;20437;-74
2022/04/29 08:27:51;;;;;;;21.53;15.77;;;;;;;;;;4955404;29;20417;-73
2022/04/29 08:30:17;;;;;;;20.87;17.23;;;;;;;;;;4955415;28;20421;-76
2022/04/29 08:32:44;;;;;;;20.40;15.63;;;;;;;;;;4954090;29;20467;-74
2022/04/29 08:35:10;;;;;;;22.23;16.47;;;;;;;;;;4954779;29;20972;-74
2022/04/29 08:37:37;;;;;;;21.67;15.50;;;;;;;;;;4953872;29;20922;-74
2022/04/29 08:40:04;;;;;;;23.73;17.00;;;;;;;;;;4955131;29;20460;-75
2022/04/29 08:42:35;;;;;;;22.90;17.13;;;;;;;;;;4954088;29;20417;-75
2022/04/29 08:45:02;;;;;;;21.90;17.17;;;;;;;;;;4954721;28;20433;-74
2022/04/29 08:47:28;;;;;;;28.03;18.53;;;;;;;;;;4954974;29;20755;-74
2022/04/29 08:49:55;;;;;;;24.37;16.30;;;;;;;;;;4955059;29;20424;-74
2022/04/29 08:52:21;;;;;;;22.87;16.23;;;;;;;;;;4955037;29;20419;-74
2022/04/29 09:00:23;;;;;;;23.27;17.40;;;;;;;;;;4954868;29;20420;-74
2022/04/29 09:02:49;;;;;;;24.67;16.30;;;;;;;;;;4954883;28;20404;-74
2022/04/29 09:05:15;;;;;;;22.07;15.50;;;;;;;;;;4954385;29;20425;-74
2022/04/29 09:07:52;;;;;;;18.43;15.00;;;;;;;;;;4954903;29;20398;-74
2022/04/29 09:10:17;;;;;;;25.47;15.90;;;;;;;;;;4955169;28;20440;-74
2022/04/29 09:12:44;;;;;;;19.67;15.27;;;;;;;;;;4958919;29;20408;-75
2022/04/29 09:15:14;;;;;;;20.03;15.07;;;;;;;;;;4958377;28;20420;-74
2022/04/29 09:17:47;;;;;;;30.53;16.37;;;;;;;;;;4958513;29;20376;-75
2022/04/29 09:20:16;;;;;;;23.40;16.90;;;;;;;;;;4958531;29;20460;-74
2022/04/29 09:22:46;;;;;;;21.27;17.30;;;;;;;;;;4958628;28;20445;-74
2022/04/29 09:25:12;;;;;;;25.87;18.07;;;;;;;;;;4957957;28;20455;-74
2022/04/29 09:28:13;;;;;;;25.90;18.90;;;;;;;;;;4957518;29;20500;-75
2022/04/29 09:30:41;;;;;;;23.10;17.83;;;;;;;;;;4917922;29;20395;-74
2022/04/29 09:33:27;;;;;;;26.03;18.00;;;;;;;;;;4941861;28;20422;-75
2022/04/29 09:35:54;;;;;;;26.30;17.73;;;;;;;;;;4972247;28;20463;-74
2022/04/29 09:41:05;;;;;;;19.33;16.60;;;;;;;;;;4958174;29;20370;-73
2022/04/29 09:43:37;;;;;;;17.90;14.70;;;;;;;;;;4957432;29;20436;-75
2022/04/29 09:46:12;;;;;;;25.00;16.20;;;;;;;;;;4958220;28;20383;-76
2022/04/29 09:48:51;;;;;;;21.80;16.40;;;;;;;;;;4958277;28;20884;-74
2022/04/29 09:51:37;;;;;;;24.83;16.20;;;;;;;;;;4958130;28;20411;-76
2022/04/29 09:54:12;;;;;;;21.73;16.43;;;;;;;;;;4957705;28;20425;-75
2022/04/29 09:56:38;;;;;;;23.50;15.90;;;;;;;;;;4958044;28;20401;-75
2022/04/29 09:59:06;;;;;;;24.40;17.90;;;;;;;;;;4958013;28;20435;-74
2022/04/29 10:01:32;;;;;;;25.00;18.00;;;;;;;;;;4958208;28;20434;-75
2022/04/29 10:04:00;;;;;;;27.10;16.87;;;;;;;;;;4957344;28;20772;-74
2022/04/29 10:06:27;;;;;;;25.43;18.17;;;;;;;;;;4957894;28;20463;-74
2022/04/29 10:08:53;;;;;;;26.60;18.50;;;;;;;;;;4958097;28;20389;-73
2022/04/29 10:11:23;;;;;;;24.37;18.07;;;;;;;;;;4956982;28;20419;-75
2022/04/29 10:13:51;;;;;;;22.97;17.37;;;;;;;;;;4957499;28;20524;-74
2022/04/29 10:16:18;;;;;;;25.00;16.77;;;;;;;;;;4956798;28;20425;-74
2022/04/29 10:21:37;;;;;;;24.10;17.07;;;;;;;;;;4957806;28;20371;-74
2022/04/29 10:24:03;;;;;;;20.83;16.07;;;;;;;;;;4956286;28;20513;-75
2022/04/29 10:26:30;;;;;;;20.23;16.27;;;;;;;;;;4957619;28;20792;-75
2022/04/29 10:28:57;;;;;;;23.97;16.80;;;;;;;;;;4957575;28;20388;-74
2022/04/29 10:31:23;;;;;;;23.93;17.80;;;;;;;;;;4956252;28;20412;-74
2022/04/29 10:33:50;;;;;;;29.73;18.50;;;;;;;;;;4957077;28;20429;-75
2022/04/29 10:36:16;;;;;;;29.50;17.37;;;;;;;;;;4957476;28;20409;-75
2022/04/29 10:38:46;;;;;;;32.77;18.20;;;;;;;;;;4957503;28;20461;-75
2022/04/29 10:41:23;;;;;;;23.93;17.60;;;;;;;;;;4957447;28;20417;-75
2022/04/29 10:43:52;;;;;;;22.50;16.90;;;;;;;;;;4956921;28;20407;-75
2022/04/29 10:46:22;;;;;;;21.43;17.10;;;;;;;;;;4957040;28;20417;-74
2022/04/29 10:48:49;;;;;;;21.53;15.83;;;;;;;;;;4957233;28;20424;-74
2022/04/29 10:51:27;;;;;;;17.37;14.43;;;;;;;;;;4957181;28;20500;-75
2022/04/29 10:53:55;;;;;;;22.43;14.43;;;;;;;;;;4956712;28;20488;-74
2022/04/29 10:56:27;;;;;;;20.57;14.70;;;;;;;;;;4956781;28;20391;-74
2022/04/29 10:58:53;;;;;;;16.83;13.70;;;;;;;;;;4956835;28;20468;-76
2022/04/29 11:01:24;;;;;;;21.83;12.57;;;;;;;;;;4956920;28;20409;-75
2022/04/29 11:03:50;;;;;;;20.30;13.07;;;;;;;;;;4956536;28;20487;-75
2022/04/29 11:06:16;;;;;;;18.10;13.73;;;;;;;;;;4956854;28;20383;-75
2022/04/29 11:08:43;;;;;;;17.87;12.87;;;;;;;;;;4955572;28;20826;-75
2022/04/29 11:11:09;;;;;;;13.30;11.40;;;;;;;;;;4957122;28;20441;-75
2022/04/29 11:13:37;;;;;;;19.07;12.50;;;;;;;;;;4956181;28;20840;-74
2022/04/29 11:16:11;;;;;;;18.17;12.73;;;;;;;;;;4955399;28;20508;-76
2022/04/29 11:18:37;;;;;;;17.63;12.17;;;;;;;;;;4956429;28;20464;-74
2022/04/29 11:26:58;;;;;;;16.03;11.60;;;;;;;;;;4956866;29;20446;-74
2022/04/29 11:29:24;;;;;;;15.93;11.37;;;;;;;;;;4956377;28;20405;-76
2022/04/29 11:31:50;;;;;;;16.57;12.60;;;;;;;;;;4956139;28;20508;-75
2022/04/29 11:34:16;;;;;;;24.60;12.70;;;;;;;;;;4956034;28;20939;-75
2022/04/29 11:36:43;;;;;;;17.13;11.33;;;;;;;;;;4956208;28;20965;-77
2022/04/29 11:39:09;;;;;;;13.30;10.20;;;;;;;;;;4956300;28;20456;-75
2022/04/29 11:41:35;;;;;;;17.80;11.97;;;;;;;;;;4956198;28;20942;-75
2022/04/29 11:44:03;;;;;;;14.57;11.90;;;;;;;;;;4955665;28;20510;-76
2022/04/29 11:46:29;;;;;;;14.73;12.30;;;;;;;;;;4956098;28;20409;-74
2022/04/29 11:48:57;;;;;;;18.37;12.30;;;;;;;;;;4955983;28;20413;-76
2022/04/29 11:51:23;;;;;;;14.30;11.10;;;;;;;;;;4955908;28;20452;-75
2022/04/29 11:53:57;;;;;;;21.77;12.40;;;;;;;;;;4955657;28;20461;-75
2022/04/29 11:56:23;;;;;;;17.17;11.07;;;;;;;;;;4955977;28;20446;-75
2022/04/29 11:58:52;;;;;;;17.20;11.53;;;;;;;;;;4955647;28;20443;-75
2022/04/29 12:01:19;;;;;;;14.10;10.57;;;;;;;;;;4955753;28;20648;-75
2022/04/29 12:03:49;;;;;;;12.40;11.10;;;;;;;;;;4955451;28;20452;-75
2022/04/29 12:06:16;;;;;;;14.37;10.67;;;;;;;;;;4954481;29;21152;-74
2022/04/29 12:08:42;;;;;;;14.37;11.43;;;;;;;;;;4954334;29;20425;-76
2022/04/29 12:11:09;;;;;;;14.87;11.93;;;;;;;;;;4955519;28;20893;-76
2022/04/29 12:13:38;;;;;;;19.23;11.47;;;;;;;;;;4954163;29;20782;-76
2022/04/29 12:16:05;;;;;;;15.17;11.97;;;;;;;;;;4954224;28;20472;-75
2022/04/29 12:18:57;;;;;;;14.87;11.37;;;;;;;;;;4955466;28;20443;-76
2022/04/29 12:21:24;;;;;;;16.20;11.47;;;;;;;;;;4953547;29;20421;-77
2022/04/29 12:23:51;;;;;;;19.63;12.23;;;;;;;;;;4955049;28;20460;-76
2022/04/29 12:26:17;;;;;;;17.67;10.63;;;;;;;;;;4955574;28;20409;-76
2022/04/29 12:28:43;;;;;;;15.33;11.10;;;;;;;;;;4955539;28;20428;-75
2022/04/29 12:36:57;;;;;;;14.03;10.57;;;;;;;;;;4955374;28;20456;-75
2022/04/29 12:39:24;;;;;;;17.57;11.70;;;;;;;;;;4955304;28;20904;-75
2022/04/29 12:41:57;;;;;;;18.87;12.90;;;;;;;;;;4954726;28;20425;-76
2022/04/29 12:47:28;;;;;;;14.30;11.57;;;;;;;;;;4955079;29;20469;-74
2022/04/29 12:50:14;;;;;;;16.50;11.70;;;;;;;;;;4955106;29;20417;-77
2022/04/29 12:52:53;;;;;;;17.83;11.80;;;;;;;;;;4955262;29;20415;-74
2022/04/29 12:55:19;;;;;;;17.30;10.10;;;;;;;;;;4954974;28;20793;-76
2022/04/29 12:57:46;;;;;;;18.40;11.33;;;;;;;;;;4953966;28;20830;-76
2022/04/29 13:00:21;;;;;;;16.30;12.40;;;;;;;;;;4954973;28;20542;-75
2022/04/29 13:02:57;;;;;;;18.27;11.33;;;;;;;;;;4955193;29;20387;-76
2022/04/29 13:05:23;;;;;;;18.37;11.17;;;;;;;;;;4955058;29;20405;-75
2022/04/29 13:07:49;;;;;;;14.47;10.00;;;;;;;;;;4954947;29;20410;-76
2022/04/29 13:10:17;;;;;;;14.50;10.10;;;;;;;;;;4953868;29;20494;-75
2022/04/29 13:12:44;;;;;;;18.83;12.07;;;;;;;;;;4954367;28;20882;-75
2022/04/29 13:15:11;;;;;;;18.00;12.47;;;;;;;;;;4954664;28;20917;-76
2022/04/29 13:17:37;;;;;;;18.60;11.13;;;;;;;;;;4952989;29;20436;-75
2022/04/29 13:20:04;;;;;;;13.27;11.33;;;;;;;;;;4954812;28;20423;-76
2022/04/29 13:22:30;;;;;;;19.53;11.93;;;;;;;;;;4954915;28;20421;-76
2022/04/29 13:24:59;;;;;;;17.87;11.30;;;;;;;;;;4954437;28;20949;-75
2022/04/29 13:27:25;;;;;;;17.90;11.50;;;;;;;;;;4954630;28;20403;-75
2022/04/29 13:29:51;;;;;;;18.30;11.83;;;;;;;;;;4953997;29;20391;-77
2022/04/29 13:32:17;;;;;;;17.27;11.90;;;;;;;;;;4958537;28;20417;-75
2022/04/29 13:34:43;;;;;;;15.13;9.87;;;;;;;;;;4954875;28;20445;-76
2022/04/29 13:37:09;;;;;;;17.30;10.57;;;;;;;;;;4955080;29;20822;-76
2022/04/29 13:39:35;;;;;;;19.93;12.20;;;;;;;;;;4953175;29;20443;-76
2022/04/29 13:42:01;;;;;;;17.27;11.23;;;;;;;;;;4954935;28;20387;-75
2022/04/29 13:44:28;;;;;;;17.50;10.80;;;;;;;;;;4954300;28;20440;-75
2022/04/29 13:46:54;;;;;;;20.57;11.70;;;;;;;;;;4953596;29;20799;-76
2022/04/29 13:49:20;;;;;;;16.20;8.93;;;;;;;;;;4954680;28;20432;-75
2022/04/29 13:51:46;;;;;;;18.63;11.57;;;;;;;;;;4954312;29;20402;-76
2022/04/29 13:54:12;;;;;;;18.63;9.63;;;;;;;;;;4953133;29;20775;-76
2022/04/29 13:56:38;;;;;;;13.33;9.40;;;;;;;;;;4953192;28;20429;-76
2022/04/29 13:59:04;;;;;;;10.77;8.90;;;;;;;;;;4957150;28;20464;-77
2022/04/29 14:01:31;;;;;;;17.80;9.40;;;;;;;;;;4957745;29;20951;-76
2022/04/29 14:03:57;;;;;;;20.27;9.30;;;;;;;;;;4957559;29;20478;-75
2022/04/29 14:06:23;;;;;;;13.70;8.93;;;;;;;;;;4958195;29;20503;-75
2022/04/29 14:08:49;;;;;;;12.67;8.83;;;;;;;;;;4956485;29;20439;-75
2022/04/29 14:11:15;;;;;;;14.53;8.30;;;;;;;;;;4957810;29;20740;-77
2022/04/29 14:13:41;;;;;;;14.83;8.83;;;;;;;;;;4957341;29;20445;-75
2022/04/29 14:16:07;;;;;;;16.77;9.50;;;;;;;;;;4957700;29;20391;-75
2022/04/29 14:18:33;;;;;;;15.33;7.40;;;;;;;;;;4957560;29;20818;-76
2022/04/29 14:20:59;;;;;;;18.17;9.33;;;;;;;;;;4957017;28;20399;-77
2022/04/29 14:23:25;;;;;;;12.53;8.00;;;;;;;;;;4957258;29;20999;-77
2022/04/29 14:25:51;;;;;;;11.20;7.03;;;;;;;;;;4957753;29;20412;-75
2022/04/29 14:28:17;;;;;;;12.93;7.50;;;;;;;;;;4957720;29;20483;-75
2022/04/29 14:30:43;;;;;;;13.60;7.80;;;;;;;;;;4957674;29;20417;-76
2022/04/29 14:33:09;;;;;;;11.13;8.47;;;;;;;;;;4956795;29;20421;-77
2022/04/29 14:35:35;;;;;;;13.10;7.77;;;;;;;;;;4956277;29;20989;-75
2022/04/29 14:38:01;;;;;;;14.77;7.77;;;;;;;;;;4957450;29;20428;-77
2022/04/29 14:40:27;;;;;;;12.03;7.40;;;;;;;;;;4957594;29;20476;-75
2022/04/29 14:42:53;;;;;;;9.60;6.70;;;;;;;;;;4956908;29;20384;-75
2022/04/29 14:45:19;;;;;;;12.57;7.90;;;;;;;;;;4957158;29;20439;-76
2022/04/29 14:47:45;;;;;;;14.83;8.07;;;;;;;;;;4957353;29;20467;-76
2022/04/29 14:50:12;;;;;;;15.37;9.37;;;;;;;;;;4957130;29;20388;-78
2022/04/29 14:52:38;;;;;;;12.70;9.53;;;;;;;;;;4956886;29;20419;-76
2022/04/29 14:55:05;;;;;;;11.77;8.70;;;;;;;;;;4955431;29;20453;-76